Hay, Washington
Current Conditions -  °F | °C
As of 4:53 AM on Friday 28 Nov 2014 (Local Time) from KPUW Reporting Station
Overcast Overcast  
Wind Chill: 51°   Ceiling: 4200
Heat Index: 51°   Visibility: 10mi
Dew Point: 43°   Wind: 14mph
Humidity: 74%   Direction: 240°WSW
Pressure: 29.69"   Gusts: 20mph
Location:  46.68°N, 117.92°W
Report Text: KPUW 281253Z AUTO 24012G17KT 10SM BKN042 OVC110 11/06 A2969 RMK AO2 SLP055 T01060061
Loading
Personal Weather Stations






























Interactive Weather Map New forecast layout! Learn more

10-Day Weather Forecast

Advertisements
Track Severe Weather on mobile